Tabor, Iowa
Current Conditions -  °F | °C
As of 9:55 AM on Sunday 25 Jan 2015 (Local Time) from KPMV Reporting Station
Overcast Overcast  
Wind Chill: 25°   Ceiling: 1100
Heat Index: 36°   Visibility: 10mi
Dew Point: 32°   Wind: 20mph
Humidity: 87%   Direction: 340°NNW
Pressure: 29.87"   Gusts: 25mph
Location:  40.9°N, 95.67°W
Report Text: KPMV 251555Z AUTO 34017G22KT 10SM OVC011 02/00 A2987 RMK AO2 T00200000
Loading
Personal Weather Stations






























Interactive Weather Map New forecast layout! Learn more

10-Day Weather Forecast

Advertisements
Track Severe Weather on mobile